sensor_id;sensor_type;location;lat;lon;timestamp;pressure;altitude;pressure_sealevel;temperature;humidity
17855;BME280;9053;53.358;6.382;2023-03-31T00:01:42;100142.50;;;10.97;100.00
17855;BME280;9053;53.358;6.382;2023-03-31T00:04:24;100154.75;;;10.96;100.00
17855;BME280;9053;53.358;6.382;2023-03-31T00:07:07;100140.69;;;10.96;100.00
17855;BME280;9053;53.358;6.382;2023-03-31T00:09:56;100138.94;;;10.95;100.00
17855;BME280;9053;53.358;6.382;2023-03-31T00:24:05;100118.00;;;11.01;100.00
17855;BME280;9053;53.358;6.382;2023-03-31T00:26:38;100111.91;;;11.02;100.00
17855;BME280;9053;53.358;6.382;2023-03-31T00:29:21;100102.19;;;10.99;100.00
17855;BME280;9053;53.358;6.382;2023-03-31T00:31:52;100093.44;;;11.00;100.00
17855;BME280;9053;53.358;6.382;2023-03-31T00:34:35;100089.09;;;11.02;100.00
17855;BME280;9053;53.358;6.382;2023-03-31T00:37:09;100085.59;;;11.03;100.00
17855;BME280;9053;53.358;6.382;2023-03-31T00:39:41;100075.16;;;11.07;100.00
17855;BME280;9053;53.358;6.382;2023-03-31T00:42:19;100072.53;;;11.08;100.00
17855;BME280;9053;53.358;6.382;2023-03-31T00:45:20;100067.31;;;11.10;100.00
17855;BME280;9053;53.358;6.382;2023-03-31T00:48:10;100062.88;;;11.09;100.00
17855;BME280;9053;53.358;6.382;2023-03-31T00:50:52;100062.88;;;11.09;100.00
17855;BME280;9053;53.358;6.382;2023-03-31T00:53:28;100046.22;;;11.08;100.00
17855;BME280;9053;53.358;6.382;2023-03-31T01:20:50;100011.88;;;10.99;100.00
17855;BME280;9053;53.358;6.382;2023-03-31T01:23:55;100007.44;;;10.98;100.00
17855;BME280;9053;53.358;6.382;2023-03-31T01:26:48;100002.19;;;10.98;100.00
17855;BME280;9053;53.358;6.382;2023-03-31T01:38:55;99977.53;;;10.93;100.00
17855;BME280;9053;53.358;6.382;2023-03-31T01:41:43;99979.25;;;10.89;100.00
17855;BME280;9053;53.358;6.382;2023-03-31T01:44:22;99976.59;;;10.89;100.00
17855;BME280;9053;53.358;6.382;2023-03-31T01:47:01;99969.59;;;10.90;100.00
17855;BME280;9053;53.358;6.382;2023-03-31T01:49:41;99963.47;;;10.89;100.00
17855;BME280;9053;53.358;6.382;2023-03-31T01:52:18;99959.03;;;10.88;100.00
17855;BME280;9053;53.358;6.382;2023-03-31T01:54:55;99958.16;;;10.86;100.00
17855;BME280;9053;53.358;6.382;2023-03-31T01:57:48;99948.50;;;10.87;100.00
17855;BME280;9053;53.358;6.382;2023-03-31T02:00:23;99955.53;;;10.86;100.00
17855;BME280;9053;53.358;6.382;2023-03-31T02:03:07;99953.72;;;10.83;100.00
17855;BME280;9053;53.358;6.382;2023-03-31T02:05:44;99944.03;;;10.81;100.00
17855;BME280;9053;53.358;6.382;2023-03-31T02:08:19;99934.34;;;10.80;100.00
17855;BME280;9053;53.358;6.382;2023-03-31T02:10:52;99941.31;;;10.78;100.00
17855;BME280;9053;53.358;6.382;2023-03-31T02:13:27;99949.16;;;10.75;100.00
17855;BME280;9053;53.358;6.382;2023-03-31T02:16:29;99933.28;;;10.70;100.00
17855;BME280;9053;53.358;6.382;2023-03-31T02:19:04;99931.53;;;10.69;100.00
17855;BME280;9053;53.358;6.382;2023-03-31T02:21:42;99920.97;;;10.68;100.00
17855;BME280;9053;53.358;6.382;2023-03-31T02:24:22;99926.22;;;10.66;100.00
17855;BME280;9053;53.358;6.382;2023-03-31T02:33:46;99914.72;;;10.61;100.00
17855;BME280;9053;53.358;6.382;2023-03-31T02:36:16;99905.06;;;10.60;100.00
17855;BME280;9053;53.358;6.382;2023-03-31T02:39:31;99889.22;;;10.57;100.00
17855;BME280;9053;53.358;6.382;2023-03-31T02:42:10;99886.56;;;10.55;100.00
17855;BME280;9053;53.358;6.382;2023-03-31T02:45:05;99894.44;;;10.55;100.00
17855;BME280;9053;53.358;6.382;2023-03-31T02:47:41;99882.22;;;10.56;100.00
17855;BME280;9053;53.358;6.382;2023-03-31T02:50:16;99883.09;;;10.56;100.00
17855;BME280;9053;53.358;6.382;2023-03-31T02:52:54;99875.22;;;10.58;100.00
17855;BME280;9053;53.358;6.382;2023-03-31T02:55:39;99876.06;;;10.57;100.00
17855;BME280;9053;53.358;6.382;2023-03-31T02:58:46;99868.25;;;10.60;100.00
17855;BME280;9053;53.358;6.382;2023-03-31T03:02:02;99870.06;;;10.64;100.00
17855;BME280;9053;53.358;6.382;2023-03-31T03:04:50;99863.94;;;10.64;100.00
17855;BME280;9053;53.358;6.382;2023-03-31T03:07:46;99851.69;;;10.64;100.00
17855;BME280;9053;53.358;6.382;2023-03-31T03:10:59;99848.22;;;10.67;100.00
17855;BME280;9053;53.358;6.382;2023-03-31T03:13:40;99837.69;;;10.68;100.00
17855;BME280;9053;53.358;6.382;2023-03-31T03:16:18;99828.09;;;10.70;100.00
17855;BME280;9053;53.358;6.382;2023-03-31T03:18:56;99815.88;;;10.72;100.00
17855;BME280;9053;53.358;6.382;2023-03-31T03:21:30;99815.91;;;10.74;100.00
17855;BME280;9053;53.358;6.382;2023-03-31T03:27:29;99807.19;;;10.76;100.00
17855;BME280;9053;53.358;6.382;2023-03-31T03:30:38;99801.84;;;10.73;100.00
17855;BME280;9053;53.358;6.382;2023-03-31T03:37:17;99791.31;;;10.73;100.00
17855;BME280;9053;53.358;6.382;2023-03-31T04:11:25;99725.59;;;10.72;100.00
17855;BME280;9053;53.358;6.382;2023-03-31T04:13:56;99718.56;;;10.72;100.00
17855;BME280;9053;53.358;6.382;2023-03-31T04:16:29;99712.47;;;10.75;100.00
17855;BME280;9053;53.358;6.382;2023-03-31T04:19:28;99708.09;;;10.75;100.00
17855;BME280;9053;53.358;6.382;2023-03-31T04:21:58;99698.47;;;10.76;100.00
17855;BME280;9053;53.358;6.382;2023-03-31T04:24:30;99699.38;;;10.76;100.00
17855;BME280;9053;53.358;6.382;2023-03-31T04:27:02;99689.72;;;10.78;100.00
17855;BME280;9053;53.358;6.382;2023-03-31T04:33:26;99679.22;;;10.78;100.00
17855;BME280;9053;53.358;6.382;2023-03-31T04:36:51;99673.94;;;10.78;100.00
17855;BME280;9053;53.358;6.382;2023-03-31T04:39:47;99668.72;;;10.80;100.00
17855;BME280;9053;53.358;6.382;2023-03-31T04:42:27;99666.09;;;10.80;100.00
17855;BME280;9053;53.358;6.382;2023-03-31T04:45:11;99652.06;;;10.79;100.00
17855;BME280;9053;53.358;6.382;2023-03-31T04:47:42;99656.44;;;10.80;100.00
17855;BME280;9053;53.358;6.382;2023-03-31T04:50:41;99638.94;;;10.81;100.00
17855;BME280;9053;53.358;6.382;2023-03-31T04:53:12;99635.44;;;10.82;100.00
17855;BME280;9053;53.358;6.382;2023-03-31T04:55:42;99631.94;;;10.83;100.00
17855;BME280;9053;53.358;6.382;2023-03-31T04:58:16;99626.72;;;10.85;100.00
17855;BME280;9053;53.358;6.382;2023-03-31T05:01:24;99629.31;;;10.83;100.00
17855;BME280;9053;53.358;6.382;2023-03-31T05:03:57;99629.31;;;10.81;100.00
17855;BME280;9053;53.358;6.382;2023-03-31T05:19:53;99604.78;;;10.84;100.00
17855;BME280;9053;53.358;6.382;2023-03-31T05:22:55;99601.31;;;10.88;100.00
17855;BME280;9053;53.358;6.382;2023-03-31T05:25:25;99594.34;;;10.89;100.00
17855;BME280;9053;53.358;6.382;2023-03-31T05:28:03;99593.50;;;10.91;100.00
17855;BME280;9053;53.358;6.382;2023-03-31T05:30:54;99583.84;;;10.92;100.00
17855;BME280;9053;53.358;6.382;2023-03-31T05:33:33;99584.75;;;10.94;100.00
17855;BME280;9053;53.358;6.382;2023-03-31T05:56:36;99549.88;;;11.12;100.00
17855;BME280;9053;53.358;6.382;2023-03-31T06:02:39;99535.91;;;11.17;100.00
17855;BME280;9053;53.358;6.382;2023-03-31T06:05:20;99532.44;;;11.21;100.00
17855;BME280;9053;53.358;6.382;2023-03-31T06:07:58;99533.31;;;11.23;100.00
17855;BME280;9053;53.358;6.382;2023-03-31T06:10:38;99528.06;;;11.23;100.00
17855;BME280;9053;53.358;6.382;2023-03-31T06:23:17;99506.16;;;11.24;100.00
17855;BME280;9053;53.358;6.382;2023-03-31T06:45:26;99481.59;;;11.25;100.00
17855;BME280;9053;53.358;6.382;2023-03-31T06:48:10;99468.47;;;11.27;100.00
17855;BME280;9053;53.358;6.382;2023-03-31T06:54:30;99457.09;;;11.33;100.00
17855;BME280;9053;53.358;6.382;2023-03-31T06:57:06;99461.50;;;11.35;100.00
17855;BME280;9053;53.358;6.382;2023-03-31T06:59:37;99452.72;;;11.36;100.00
17855;BME280;9053;53.358;6.382;2023-03-31T07:02:09;99455.41;;;11.41;100.00
17855;BME280;9053;53.358;6.382;2023-03-31T07:04:42;99450.16;;;11.44;100.00
17855;BME280;9053;53.358;6.382;2023-03-31T07:07:16;99447.53;;;11.44;100.00
17855;BME280;9053;53.358;6.382;2023-03-31T07:10:05;99444.06;;;11.48;100.00
17855;BME280;9053;53.358;6.382;2023-03-31T07:12:35;99444.97;;;11.52;100.00
17855;BME280;9053;53.358;6.382;2023-03-31T07:15:07;99437.97;;;11.55;100.00
17855;BME280;9053;53.358;6.382;2023-03-31T07:17:45;99435.34;;;11.55;100.00
17855;BME280;9053;53.358;6.382;2023-03-31T07:20:22;99432.72;;;11.58;100.00
17855;BME280;9053;53.358;6.382;2023-03-31T07:23:17;99430.13;;;11.60;100.00
17855;BME280;9053;53.358;6.382;2023-03-31T07:26:08;99435.38;;;11.61;100.00
17855;BME280;9053;53.358;6.382;2023-03-31T07:31:45;99421.34;;;11.59;100.00
17855;BME280;9053;53.358;6.382;2023-03-31T07:32:32;99421.34;;;11.61;100.00
17855;BME280;9053;53.358;6.382;2023-03-31T07:35:08;99416.06;;;11.61;100.00
17855;BME280;9053;53.358;6.382;2023-03-31T07:37:40;99418.69;;;11.61;100.00
17855;BME280;9053;53.358;6.382;2023-03-31T07:40:13;99413.44;;;11.61;100.00
17855;BME280;9053;53.358;6.382;2023-03-31T07:42:49;99417.84;;;11.63;100.00
17855;BME280;9053;53.358;6.382;2023-03-31T07:45:24;99409.06;;;11.63;100.00
17855;BME280;9053;53.358;6.382;2023-03-31T07:48:05;99408.19;;;11.62;100.00
17855;BME280;9053;53.358;6.382;2023-03-31T07:50:43;99406.44;;;11.63;100.00
17855;BME280;9053;53.358;6.382;2023-03-31T07:53:13;99402.94;;;11.62;100.00
17855;BME280;9053;53.358;6.382;2023-03-31T07:55:43;99395.88;;;11.61;100.00
17855;BME280;9053;53.358;6.382;2023-03-31T07:58:15;99393.28;;;11.64;100.00
17855;BME280;9053;53.358;6.382;2023-03-31T08:00:45;99391.53;;;11.65;100.00
17855;BME280;9053;53.358;6.382;2023-03-31T08:03:15;99384.50;;;11.65;100.00
17855;BME280;9053;53.358;6.382;2023-03-31T08:05:45;99388.88;;;11.66;100.00
17855;BME280;9053;53.358;6.382;2023-03-31T08:08:18;99383.66;;;11.68;100.00
17855;BME280;9053;53.358;6.382;2023-03-31T08:10:48;99380.16;;;11.70;100.00
17855;BME280;9053;53.358;6.382;2023-03-31T08:13:20;99374.91;;;11.72;100.00
17855;BME280;9053;53.358;6.382;2023-03-31T08:15:50;99369.63;;;11.74;100.00
17855;BME280;9053;53.358;6.382;2023-03-31T08:18:20;99369.63;;;11.74;100.00
17855;BME280;9053;53.358;6.382;2023-03-31T08:20:50;99361.75;;;11.75;100.00
17855;BME280;9053;53.358;6.382;2023-03-31T08:23:20;99360.00;;;11.77;100.00
17855;BME280;9053;53.358;6.382;2023-03-31T08:25:51;99359.09;;;11.77;100.00
17855;BME280;9053;53.358;6.382;2023-03-31T08:28:23;99357.38;;;11.79;100.00
17855;BME280;9053;53.358;6.382;2023-03-31T08:30:53;99353.88;;;11.80;100.00
17855;BME280;9053;53.358;6.382;2023-03-31T08:33:23;99350.34;;;11.81;100.00
17855;BME280;9053;53.358;6.382;2023-03-31T08:35:52;99344.22;;;11.80;100.00
17855;BME280;9053;53.358;6.382;2023-03-31T08:38:22;99334.56;;;11.81;100.00
17855;BME280;9053;53.358;6.382;2023-03-31T08:40:58;99331.03;;;11.80;100.00
17855;BME280;9053;53.358;6.382;2023-03-31T08:43:33;99325.78;;;11.82;100.00
17855;BME280;9053;53.358;6.382;2023-03-31T08:46:07;99325.78;;;11.82;100.00
17855;BME280;9053;53.358;6.382;2023-03-31T08:48:41;99329.28;;;11.81;100.00
17855;BME280;9053;53.358;6.382;2023-03-31T08:51:17;99325.75;;;11.79;100.00
17855;BME280;9053;53.358;6.382;2023-03-31T08:53:56;99327.53;;;11.81;100.00
17855;BME280;9053;53.358;6.382;2023-03-31T08:56:26;99318.78;;;11.82;100.00
17855;BME280;9053;53.358;6.382;2023-03-31T08:59:00;99321.38;;;11.84;100.00
17855;BME280;9053;53.358;6.382;2023-03-31T09:01:37;99321.47;;;11.87;100.00
17855;BME280;9053;53.358;6.382;2023-03-31T09:04:30;99317.06;;;11.87;100.00
17855;BME280;9053;53.358;6.382;2023-03-31T09:07:12;99311.78;;;11.89;100.00
17855;BME280;9053;53.358;6.382;2023-03-31T09:09:50;99306.50;;;11.89;100.00
17855;BME280;9053;53.358;6.382;2023-03-31T09:12:29;99308.31;;;11.93;100.00
17855;BME280;9053;53.358;6.382;2023-03-31T09:15:05;99306.56;;;11.95;100.00
17855;BME280;9053;53.358;6.382;2023-03-31T09:17:43;99297.78;;;11.96;100.00
17855;BME280;9053;53.358;6.382;2023-03-31T09:20:16;99307.44;;;11.99;100.00
17855;BME280;9053;53.358;6.382;2023-03-31T09:22:51;99294.28;;;12.00;100.00
17855;BME280;9053;53.358;6.382;2023-03-31T09:25:26;99297.78;;;12.04;100.00
17855;BME280;9053;53.358;6.382;2023-03-31T09:27:58;99295.16;;;12.07;100.00
17855;BME280;9053;53.358;6.382;2023-03-31T09:30:34;99295.19;;;12.08;100.00
17855;BME280;9053;53.358;6.382;2023-03-31T09:33:11;99288.16;;;12.13;100.00
17855;BME280;9053;53.358;6.382;2023-03-31T09:35:42;99287.31;;;12.15;100.00
17855;BME280;9053;53.358;6.382;2023-03-31T09:38:15;99287.31;;;12.18;100.00
17855;BME280;9053;53.358;6.382;2023-03-31T09:40:45;99292.59;;;12.21;100.00
17855;BME280;9053;53.358;6.382;2023-03-31T09:43:20;99276.75;;;12.24;100.00
17855;BME280;9053;53.358;6.382;2023-03-31T09:45:54;99273.28;;;12.28;100.00
17855;BME280;9053;53.358;6.382;2023-03-31T09:48:52;99275.00;;;12.29;100.00
17855;BME280;9053;53.358;6.382;2023-03-31T09:51:26;99269.75;;;12.29;100.00
17855;BME280;9053;53.358;6.382;2023-03-31T09:54:03;99275.00;;;12.32;100.00
17855;BME280;9053;53.358;6.382;2023-03-31T09:56:47;99275.03;;;12.33;100.00
17855;BME280;9053;53.358;6.382;2023-03-31T09:59:37;99275.03;;;12.38;100.00
17855;BME280;9053;53.358;6.382;2023-03-31T10:02:28;99270.66;;;12.40;100.00
17855;BME280;9053;53.358;6.382;2023-03-31T10:05:04;99267.13;;;12.40;100.00
17855;BME280;9053;53.358;6.382;2023-03-31T10:07:36;99268.00;;;12.43;100.00
17855;BME280;9053;53.358;6.382;2023-03-31T10:10:10;99266.28;;;12.45;100.00
17855;BME280;9053;53.358;6.382;2023-03-31T10:12:50;99262.75;;;12.46;100.00
17855;BME280;9053;53.358;6.382;2023-03-31T10:15:25;99258.34;;;12.48;100.00
17855;BME280;9053;53.358;6.382;2023-03-31T10:17:59;99263.63;;;12.51;100.00
17855;BME280;9053;53.358;6.382;2023-03-31T10:20:32;99251.34;;;12.55;100.00
17855;BME280;9053;53.358;6.382;2023-03-31T10:23:14;99253.97;;;12.61;100.00
17855;BME280;9053;53.358;6.382;2023-03-31T10:25:45;99249.56;;;12.65;100.00
17855;BME280;9053;53.358;6.382;2023-03-31T10:28:17;99253.06;;;12.70;100.00
17855;BME280;9053;53.358;6.382;2023-03-31T10:30:48;99255.72;;;12.73;100.00
17855;BME280;9053;53.358;6.382;2023-03-31T10:33:24;99246.06;;;12.78;100.00
17855;BME280;9053;53.358;6.382;2023-03-31T10:35:57;99258.34;;;12.82;100.00
17855;BME280;9053;53.358;6.382;2023-03-31T10:38:29;99254.84;;;12.83;100.00
17855;BME280;9053;53.358;6.382;2023-03-31T10:41:00;99249.56;;;12.83;100.00
17855;BME280;9053;53.358;6.382;2023-03-31T10:43:36;99248.66;;;12.84;100.00
17855;BME280;9053;53.358;6.382;2023-03-31T10:46:08;99252.19;;;12.86;100.00
17855;BME280;9053;53.358;6.382;2023-03-31T10:48:41;99246.03;;;12.87;100.00
17855;BME280;9053;53.358;6.382;2023-03-31T10:51:15;99248.69;;;12.89;100.00
17855;BME280;9053;53.358;6.382;2023-03-31T10:53:47;99249.53;;;12.89;100.00
17855;BME280;9053;53.358;6.382;2023-03-31T10:56:34;99239.00;;;12.89;100.00
17855;BME280;9053;53.358;6.382;2023-03-31T10:59:23;99247.81;;;12.88;100.00
17855;BME280;9053;53.358;6.382;2023-03-31T11:02:12;99239.88;;;12.88;100.00
17855;BME280;9053;53.358;6.382;2023-03-31T11:05:02;99237.22;;;12.90;100.00
17855;BME280;9053;53.358;6.382;2023-03-31T11:07:44;99238.09;;;12.92;100.00
17855;BME280;9053;53.358;6.382;2023-03-31T11:10:42;99239.00;;;12.95;100.00
17855;BME280;9053;53.358;6.382;2023-03-31T11:13:22;99239.84;;;12.97;100.00
17855;BME280;9053;53.358;6.382;2023-03-31T11:16:01;99235.47;;;12.98;100.00
17855;BME280;9053;53.358;6.382;2023-03-31T11:18:51;99238.97;;;13.00;100.00
17855;BME280;9053;53.358;6.382;2023-03-31T11:21:35;99233.69;;;13.00;100.00
17855;BME280;9053;53.358;6.382;2023-03-31T11:24:17;99237.19;;;13.05;100.00
17855;BME280;9053;53.358;6.382;2023-03-31T11:26:54;99238.94;;;13.12;100.00
17855;BME280;9053;53.358;6.382;2023-03-31T11:29:32;99218.72;;;13.19;100.00
17855;BME280;9053;53.358;6.382;2023-03-31T11:32:21;99226.63;;;13.30;100.00
17855;BME280;9053;53.358;6.382;2023-03-31T11:35:05;99221.31;;;13.39;100.00
17855;BME280;9053;53.358;6.382;2023-03-31T11:37:54;99225.69;;;13.48;100.00
17855;BME280;9053;53.358;6.382;2023-03-31T11:40:38;99223.00;;;13.55;100.00
17855;BME280;9053;53.358;6.382;2023-03-31T11:43:22;99223.88;;;13.62;100.00
17855;BME280;9053;53.358;6.382;2023-03-31T11:45:58;99217.69;;;13.66;100.00
17855;BME280;9053;53.358;6.382;2023-03-31T11:48:36;99221.19;;;13.71;100.00
17855;BME280;9053;53.358;6.382;2023-03-31T11:51:14;99229.97;;;13.75;100.00
17855;BME280;9053;53.358;6.382;2023-03-31T11:53:50;99211.50;;;13.76;100.00
17855;BME280;9053;53.358;6.382;2023-03-31T11:56:24;99213.19;;;13.80;100.00
17855;BME280;9053;53.358;6.382;2023-03-31T11:59:01;99205.25;;;13.85;100.00
17855;BME280;9053;53.358;6.382;2023-03-31T12:01:37;99200.81;;;13.90;100.00
17855;BME280;9053;53.358;6.382;2023-03-31T12:04:17;99200.81;;;13.95;100.00
17855;BME280;9053;53.358;6.382;2023-03-31T12:06:54;99206.94;;;13.98;100.00
17855;BME280;9053;53.358;6.382;2023-03-31T12:09:35;99201.69;;;13.97;100.00
17855;BME280;9053;53.358;6.382;2023-03-31T12:12:11;99193.75;;;13.97;100.00
17855;BME280;9053;53.358;6.382;2023-03-31T12:14:48;99193.75;;;13.97;100.00
17855;BME280;9053;53.358;6.382;2023-03-31T12:17:24;99200.78;;;13.98;100.00
17855;BME280;9053;53.358;6.382;2023-03-31T12:19:57;99189.34;;;13.97;100.00
17855;BME280;9053;53.358;6.382;2023-03-31T12:22:33;99193.72;;;13.98;100.00
17855;BME280;9053;53.358;6.382;2023-03-31T12:25:11;99196.38;;;14.00;100.00
17855;BME280;9053;53.358;6.382;2023-03-31T12:27:43;99191.97;;;13.96;100.00
17855;BME280;9053;53.358;6.382;2023-03-31T12:30:19;99196.41;;;13.94;100.00
17855;BME280;9053;53.358;6.382;2023-03-31T12:32:53;99197.31;;;13.90;100.00
17855;BME280;9053;53.358;6.382;2023-03-31T12:35:26;99192.94;;;13.82;100.00
17855;BME280;9053;53.358;6.382;2023-03-31T12:38:06;99197.38;;;13.77;100.00
17855;BME280;9053;53.358;6.382;2023-03-31T12:40:48;99193.88;;;13.72;100.00
17855;BME280;9053;53.358;6.382;2023-03-31T12:46:34;99185.09;;;13.70;100.00
17855;BME280;9053;53.358;6.382;2023-03-31T12:49:28;99179.78;;;13.75;100.00
17855;BME280;9053;53.358;6.382;2023-03-31T12:52:08;99181.56;;;13.74;100.00
17855;BME280;9053;53.358;6.382;2023-03-31T12:57:41;99180.63;;;13.80;100.00
17855;BME280;9053;53.358;6.382;2023-03-31T13:00:24;99181.50;;;13.80;100.00
17855;BME280;9053;53.358;6.382;2023-03-31T13:05:56;99175.34;;;13.80;100.00
17855;BME280;9053;53.358;6.382;2023-03-31T13:08:53;99168.28;;;13.82;100.00
17855;BME280;9053;53.358;6.382;2023-03-31T13:11:36;99173.59;;;13.83;100.00
17855;BME280;9053;53.358;6.382;2023-03-31T13:14:16;99159.47;;;13.83;100.00
17855;BME280;9053;53.358;6.382;2023-03-31T13:16:49;99155.94;;;13.85;100.00
17855;BME280;9053;53.358;6.382;2023-03-31T13:19:27;99159.44;;;13.89;100.00
17855;BME280;9053;53.358;6.382;2023-03-31T13:22:01;99148.84;;;13.94;100.00
17855;BME280;9053;53.358;6.382;2023-03-31T13:24:33;99144.41;;;13.99;100.00
17855;BME280;9053;53.358;6.382;2023-03-31T13:27:28;99143.44;;;14.07;100.00
17855;BME280;9053;53.358;6.382;2023-03-31T13:30:03;99145.16;;;14.13;100.00
17855;BME280;9053;53.358;6.382;2023-03-31T13:32:33;99136.34;;;14.19;100.00
17855;BME280;9053;53.358;6.382;2023-03-31T13:35:13;99138.00;;;14.26;100.00
17855;BME280;9053;53.358;6.382;2023-03-31T13:37:59;99133.56;;;14.31;100.00
17855;BME280;9053;53.358;6.382;2023-03-31T13:40:54;99133.53;;;14.36;100.00
17855;BME280;9053;53.358;6.382;2023-03-31T13:43:57;99143.22;;;14.37;100.00
17855;BME280;9053;53.358;6.382;2023-03-31T13:49:54;99135.31;;;14.31;100.00
17855;BME280;9053;53.358;6.382;2023-03-31T13:52:37;99137.13;;;14.25;100.00
17855;BME280;9053;53.358;6.382;2023-03-31T13:55:24;99138.09;;;14.17;100.00
17855;BME280;9053;53.358;6.382;2023-03-31T13:58:21;99139.94;;;14.05;100.00
17855;BME280;9053;53.358;6.382;2023-03-31T14:01:20;99145.31;;;13.96;100.00
17855;BME280;9053;53.358;6.382;2023-03-31T14:04:03;99140.94;;;13.89;100.00
17855;BME280;9053;53.358;6.382;2023-03-31T14:06:43;99139.25;;;13.79;100.00
17855;BME280;9053;53.358;6.382;2023-03-31T14:09:22;99149.88;;;13.71;100.00
17855;BME280;9053;53.358;6.382;2023-03-31T14:11:57;99152.53;;;13.65;100.00
17855;BME280;9053;53.358;6.382;2023-03-31T14:14:31;99147.28;;;13.60;100.00
17855;BME280;9053;53.358;6.382;2023-03-31T14:17:02;99149.06;;;13.58;100.00
17855;BME280;9053;53.358;6.382;2023-03-31T14:22:47;99146.44;;;13.58;100.00
17855;BME280;9053;53.358;6.382;2023-03-31T14:25:32;99135.00;;;13.53;100.00
17855;BME280;9053;53.358;6.382;2023-03-31T14:28:16;99132.38;;;13.53;100.00
17855;BME280;9053;53.358;6.382;2023-03-31T14:30:55;99127.06;;;13.55;100.00
17855;BME280;9053;53.358;6.382;2023-03-31T14:33:36;99123.53;;;13.59;100.00
17855;BME280;9053;53.358;6.382;2023-03-31T14:36:12;99117.31;;;13.64;100.00
17855;BME280;9053;53.358;6.382;2023-03-31T14:38:50;99114.63;;;13.71;100.00
17855;BME280;9053;53.358;6.382;2023-03-31T14:41:34;99113.72;;;13.78;100.00
17855;BME280;9053;53.358;6.382;2023-03-31T14:44:05;99115.44;;;13.85;100.00
17855;BME280;9053;53.358;6.382;2023-03-31T14:46:37;99106.59;;;13.88;100.00
17855;BME280;9053;53.358;6.382;2023-03-31T14:49:17;99110.97;;;13.92;100.00
17855;BME280;9053;53.358;6.382;2023-03-31T14:51:47;99113.59;;;13.95;100.00
17855;BME280;9053;53.358;6.382;2023-03-31T14:54:21;99109.19;;;13.97;100.00
17855;BME280;9053;53.358;6.382;2023-03-31T14:56:54;99109.19;;;13.97;100.00
17855;BME280;9053;53.358;6.382;2023-03-31T14:59:28;99109.22;;;13.94;100.00
17855;BME280;9053;53.358;6.382;2023-03-31T15:02:02;99109.22;;;13.94;100.00
17855;BME280;9053;53.358;6.382;2023-03-31T15:04:37;99103.03;;;13.96;100.00
17855;BME280;9053;53.358;6.382;2023-03-31T15:07:12;99110.91;;;14.01;100.00
17855;BME280;9053;53.358;6.382;2023-03-31T15:09:48;99094.13;;;14.03;100.00
17855;BME280;9053;53.358;6.382;2023-03-31T15:12:20;99096.78;;;14.06;100.00
17855;BME280;9053;53.358;6.382;2023-03-31T15:14:53;99095.88;;;14.09;100.00
17855;BME280;9053;53.358;6.382;2023-03-31T15:17:28;99093.19;;;14.12;100.00
17855;BME280;9053;53.358;6.382;2023-03-31T15:20:00;99087.91;;;14.14;100.00
17855;BME280;9053;53.358;6.382;2023-03-31T15:22:32;99087.84;;;14.18;100.00
17855;BME280;9053;53.358;6.382;2023-03-31T15:25:05;99094.91;;;14.19;100.00
17855;BME280;9053;53.358;6.382;2023-03-31T15:27:36;99092.22;;;14.21;100.00
17855;BME280;9053;53.358;6.382;2023-03-31T15:30:15;99090.47;;;14.21;100.00
17855;BME280;9053;53.358;6.382;2023-03-31T15:32:46;99092.22;;;14.21;100.00
17855;BME280;9053;53.358;6.382;2023-03-31T15:35:20;99090.47;;;14.20;100.00
17855;BME280;9053;53.358;6.382;2023-03-31T15:37:55;99087.84;;;14.21;100.00
17855;BME280;9053;53.358;6.382;2023-03-31T15:40:30;99085.19;;;14.20;100.00
17855;BME280;9053;53.358;6.382;2023-03-31T15:43:05;99087.84;;;14.18;100.00
17855;BME280;9053;53.358;6.382;2023-03-31T15:45:52;99079.94;;;14.15;100.00
17855;BME280;9053;53.358;6.382;2023-03-31T15:48:28;99089.66;;;14.16;100.00
17855;BME280;9053;53.358;6.382;2023-03-31T15:51:01;99089.69;;;14.10;100.00
17855;BME280;9053;53.358;6.382;2023-03-31T15:53:35;99088.84;;;14.03;100.00
17855;BME280;9053;53.358;6.382;2023-03-31T15:56:24;99080.09;;;13.98;100.00
17855;BME280;9053;53.358;6.382;2023-03-31T15:59:03;99086.31;;;13.94;100.00
17855;BME280;9053;53.358;6.382;2023-03-31T16:01:35;99084.56;;;13.92;100.00
17855;BME280;9053;53.358;6.382;2023-03-31T16:04:08;99088.09;;;13.89;100.00
17855;BME280;9053;53.358;6.382;2023-03-31T16:06:43;99086.31;;;13.90;100.00
17855;BME280;9053;53.358;6.382;2023-03-31T16:09:16;99092.47;;;13.92;100.00
17855;BME280;9053;53.358;6.382;2023-03-31T16:11:53;99084.56;;;13.92;100.00
17855;BME280;9053;53.358;6.382;2023-03-31T16:14:29;99084.56;;;13.92;100.00
17855;BME280;9053;53.358;6.382;2023-03-31T16:17:04;99075.72;;;13.93;100.00
17855;BME280;9053;53.358;6.382;2023-03-31T16:19:40;99079.25;;;13.95;100.00
17855;BME280;9053;53.358;6.382;2023-03-31T16:22:16;99075.69;;;13.96;100.00
17855;BME280;9053;53.358;6.382;2023-03-31T16:24:48;99078.34;;;13.97;100.00
17855;BME280;9053;53.358;6.382;2023-03-31T16:27:23;99070.38;;;14.02;100.00
17855;BME280;9053;53.358;6.382;2023-03-31T16:30:05;99077.41;;;14.03;100.00
17855;BME280;9053;53.358;6.382;2023-03-31T16:32:35;99080.03;;;14.03;100.00
17855;BME280;9053;53.358;6.382;2023-03-31T16:35:06;99080.03;;;14.04;100.00
17855;BME280;9053;53.358;6.382;2023-03-31T16:37:36;99080.00;;;14.06;100.00
17855;BME280;9053;53.358;6.382;2023-03-31T16:40:08;99077.38;;;14.09;100.00
17855;BME280;9053;53.358;6.382;2023-03-31T16:42:42;99082.66;;;14.09;100.00
17855;BME280;9053;53.358;6.382;2023-03-31T16:45:12;99075.59;;;14.08;100.00
17855;BME280;9053;53.358;6.382;2023-03-31T16:47:42;99080.88;;;14.08;100.00
17855;BME280;9053;53.358;6.382;2023-03-31T16:50:12;99080.91;;;14.06;100.00
17855;BME280;9053;53.358;6.382;2023-03-31T16:52:45;99072.09;;;14.06;100.00
17855;BME280;9053;53.358;6.382;2023-03-31T16:55:18;99068.56;;;14.07;100.00
17855;BME280;9053;53.358;6.382;2023-03-31T16:57:57;99072.09;;;14.07;100.00
17855;BME280;9053;53.358;6.382;2023-03-31T17:00:35;99069.44;;;14.06;100.00
17855;BME280;9053;53.358;6.382;2023-03-31T17:03:06;99068.59;;;14.02;100.00